createdAt,value
2023-05-14T00:00:45.103Z,86.57
2023-05-14T00:01:45.167Z,79.66
2023-05-14T00:02:45.282Z,83.83
2023-05-14T00:03:45.320Z,82.33
2023-05-14T00:04:45.335Z,80.92
2023-05-14T00:05:45.381Z,80.34
2023-05-14T00:06:45.414Z,78.20
2023-05-14T00:07:45.502Z,81.00
2023-05-14T00:08:45.528Z,75.94
2023-05-14T00:09:45.621Z,75.39
2023-05-14T00:10:45.705Z,76.96
2023-05-14T00:11:45.699Z,75.79
2023-05-14T00:12:45.757Z,74.54
2023-05-14T00:13:45.808Z,74.77
2023-05-14T00:14:45.871Z,80.05
2023-05-14T00:15:45.956Z,78.39
2023-05-14T00:16:45.989Z,77.12
2023-05-14T00:17:46.114Z,75.65
2023-05-14T00:18:46.119Z,77.84
2023-05-14T00:19:46.170Z,73.23
2023-05-14T00:20:46.161Z,73.54
2023-05-14T00:21:46.216Z,74.48
2023-05-14T00:22:46.182Z,74.28
2023-05-14T00:23:46.285Z,75.66
2023-05-14T00:24:46.190Z,73.93
2023-05-14T00:25:46.185Z,77.76
2023-05-14T00:26:46.191Z,70.91
2023-05-14T00:27:46.210Z,71.18
2023-05-14T00:28:46.191Z,71.84
2023-05-14T00:29:46.248Z,75.11
2023-05-14T00:30:46.271Z,69.83
2023-05-14T00:31:46.516Z,71.97
2023-05-14T00:32:46.425Z,69.66
2023-05-14T00:33:46.441Z,68.80
2023-05-14T00:34:46.514Z,67.01
2023-05-14T00:35:46.583Z,72.67
2023-05-14T00:36:46.628Z,74.21
2023-05-14T00:37:46.667Z,76.16
2023-05-14T00:38:46.723Z,76.63
2023-05-14T00:39:46.778Z,76.17
2023-05-14T00:40:46.828Z,79.02
2023-05-14T00:41:46.907Z,76.34
2023-05-14T00:42:46.933Z,78.88
2023-05-14T00:43:46.988Z,82.86
2023-05-14T00:44:47.085Z,81.85
2023-05-14T00:45:47.231Z,81.23
2023-05-14T00:46:47.241Z,83.04
2023-05-14T00:47:47.341Z,78.67
2023-05-14T00:48:47.290Z,84.73
2023-05-14T00:49:47.373Z,87.71
2023-05-14T00:50:47.430Z,84.23
2023-05-14T00:51:47.497Z,82.79
2023-05-14T00:52:47.548Z,89.66
2023-05-14T00:53:47.608Z,85.05
2023-05-14T00:54:47.674Z,87.39
2023-05-14T00:55:47.708Z,84.50
2023-05-14T00:56:47.775Z,86.29
2023-05-14T00:57:47.848Z,85.59
2023-05-14T00:58:47.893Z,88.23
2023-05-14T00:59:47.954Z,90.00
2023-05-14T01:00:48.041Z,89.24
2023-05-14T01:01:48.087Z,90.66
2023-05-14T01:02:48.250Z,91.89
2023-05-14T01:03:48.260Z,92.91
2023-05-14T01:04:48.264Z,93.39
2023-05-14T01:05:48.266Z,93.49
2023-05-14T01:06:48.265Z,90.74
2023-05-14T01:07:48.276Z,93.94
2023-05-14T01:08:48.277Z,92.49
2023-05-14T01:09:48.277Z,91.65
2023-05-14T01:10:48.269Z,87.74
2023-05-14T01:11:48.277Z,87.21
2023-05-14T01:12:48.273Z,78.97
2023-05-14T01:13:48.286Z,82.37
2023-05-14T01:14:48.348Z,85.91
2023-05-14T01:15:48.398Z,83.77
2023-05-14T01:16:48.497Z,83.83
2023-05-14T01:17:48.613Z,81.32
2023-05-14T01:18:48.605Z,78.70
2023-05-14T01:19:48.672Z,78.86
2023-05-14T01:20:48.708Z,79.72
2023-05-14T01:21:48.783Z,79.52
2023-05-14T01:22:48.833Z,80.66
2023-05-14T01:23:48.906Z,78.05
2023-05-14T01:24:49.011Z,78.06
2023-05-14T01:25:49.108Z,74.73
2023-05-14T01:26:49.102Z,79.74
2023-05-14T01:27:49.159Z,77.17
2023-05-14T01:28:49.213Z,74.54
2023-05-14T01:29:49.268Z,68.15
2023-05-14T01:30:49.352Z,73.83
2023-05-14T01:31:49.452Z,71.37
2023-05-14T01:32:49.541Z,72.27
2023-05-14T01:33:49.499Z,78.69
2023-05-14T01:34:49.573Z,73.37
2023-05-14T01:35:49.627Z,70.89
2023-05-14T01:36:49.686Z,75.21
2023-05-14T01:37:49.754Z,71.30
2023-05-14T01:38:49.820Z,73.10
2023-05-14T01:39:49.887Z,69.02
2023-05-14T01:40:49.956Z,67.51
2023-05-14T01:41:49.994Z,64.76
2023-05-14T01:42:50.090Z,64.71
2023-05-14T01:43:50.131Z,63.25
2023-05-14T01:44:50.212Z,65.31
2023-05-14T01:45:50.303Z,70.37
2023-05-14T01:46:50.301Z,67.45
2023-05-14T01:47:50.402Z,69.39
2023-05-14T01:48:50.430Z,61.95
2023-05-14T01:49:50.487Z,67.48
2023-05-14T01:50:50.565Z,62.21
2023-05-14T01:51:50.623Z,66.42
2023-05-14T01:52:50.691Z,60.28
2023-05-14T01:53:50.752Z,60.20
2023-05-14T01:54:50.831Z,63.20
2023-05-14T01:55:50.890Z,64.32
2023-05-14T01:56:50.939Z,59.37
2023-05-14T01:57:51.010Z,60.61
2023-05-14T01:58:51.079Z,62.03
2023-05-14T01:59:51.140Z,55.72
2023-05-14T02:00:51.209Z,55.35
2023-05-14T02:01:51.370Z,55.66
2023-05-14T02:02:51.371Z,54.49
2023-05-14T02:03:51.446Z,57.49
2023-05-14T02:04:51.453Z,60.49
2023-05-14T02:05:51.542Z,55.00
2023-05-14T02:06:51.576Z,58.13
2023-05-14T02:07:51.636Z,57.94
2023-05-14T02:08:51.705Z,55.48
2023-05-14T02:09:51.776Z,59.68
2023-05-14T02:10:51.846Z,56.53
2023-05-14T02:11:51.909Z,56.36
2023-05-14T02:12:51.977Z,59.46
2023-05-14T02:13:52.037Z,58.84
2023-05-14T02:14:52.107Z,56.60
2023-05-14T02:15:52.133Z,56.66
2023-05-14T02:16:52.125Z,55.46
2023-05-14T02:17:52.202Z,56.77
2023-05-14T02:18:52.191Z,52.53
2023-05-14T02:19:52.115Z,53.89
2023-05-14T02:20:52.132Z,60.43
2023-05-14T02:21:52.140Z,60.42
2023-05-14T02:22:52.139Z,64.91
2023-05-14T02:23:52.159Z,65.36
2023-05-14T02:24:52.227Z,62.70
2023-05-14T02:25:52.281Z,65.55
2023-05-14T02:26:52.354Z,65.80
2023-05-14T02:27:52.415Z,62.48
2023-05-14T02:28:52.465Z,62.84
2023-05-14T02:29:52.440Z,63.53
2023-05-14T02:30:52.455Z,65.07
2023-05-14T02:31:52.500Z,67.34
2023-05-14T02:32:52.488Z,68.59
2023-05-14T02:33:52.448Z,71.55
2023-05-14T02:34:52.466Z,69.30
2023-05-14T02:35:52.473Z,70.82
2023-05-14T02:36:52.523Z,73.88
2023-05-14T02:37:52.574Z,71.56
2023-05-14T02:38:52.638Z,73.41
2023-05-14T02:39:52.729Z,72.57
2023-05-14T02:40:52.801Z,67.73
2023-05-14T02:41:52.873Z,64.44
2023-05-14T02:42:52.947Z,56.13
2023-05-14T02:43:53.026Z,50.22
2023-05-14T02:44:53.095Z,50.12
2023-05-14T02:45:53.206Z,39.26
2023-05-14T02:46:53.312Z,32.96
2023-05-14T02:47:53.496Z,26.40
2023-05-14T02:48:53.408Z,28.41
2023-05-14T02:49:53.477Z,27.24
2023-05-14T02:50:53.553Z,24.75
2023-05-14T02:51:53.598Z,29.93
2023-05-14T02:52:53.772Z,25.60
2023-05-14T02:53:53.777Z,32.26
2023-05-14T02:54:53.829Z,35.19
2023-05-14T02:55:54.226Z,35.99
2023-05-14T02:56:54.023Z,34.62
2023-05-14T02:57:54.057Z,33.46
2023-05-14T02:58:54.168Z,31.78
2023-05-14T02:59:54.189Z,35.00
2023-05-14T03:00:54.327Z,32.65
2023-05-14T03:01:54.401Z,35.11
2023-05-14T03:02:54.471Z,36.69
2023-05-14T03:03:54.479Z,36.20
2023-05-14T03:04:54.575Z,34.88
2023-05-14T03:05:54.637Z,33.51
2023-05-14T03:06:54.727Z,35.68
2023-05-14T03:07:54.790Z,36.22
2023-05-14T03:08:54.863Z,40.37
2023-05-14T03:09:54.929Z,30.71
2023-05-14T03:10:55.020Z,30.95
2023-05-14T03:11:55.097Z,31.68
2023-05-14T03:12:55.157Z,27.05
2023-05-14T03:13:55.271Z,34.11
2023-05-14T03:14:55.337Z,35.36
2023-05-14T03:15:55.405Z,31.10
2023-05-14T03:16:55.535Z,30.39
2023-05-14T03:17:55.565Z,33.26
2023-05-14T03:18:55.808Z,34.72
2023-05-14T03:19:55.732Z,30.79
2023-05-14T03:20:55.803Z,31.43
2023-05-14T03:21:55.801Z,31.55
2023-05-14T03:22:55.803Z,29.57
2023-05-14T03:23:55.833Z,28.78
2023-05-14T03:24:55.827Z,30.66
2023-05-14T03:25:55.862Z,30.87
2023-05-14T03:26:55.861Z,32.14
2023-05-14T03:27:55.868Z,34.48
2023-05-14T03:28:55.920Z,32.71
2023-05-14T03:29:55.972Z,30.21
2023-05-14T03:30:56.100Z,25.63
2023-05-14T03:31:56.119Z,34.30
2023-05-14T03:32:56.213Z,32.94
2023-05-14T03:33:56.267Z,33.07
2023-05-14T03:34:56.453Z,33.70
2023-05-14T03:35:56.431Z,32.49
2023-05-14T03:36:56.504Z,33.47
2023-05-14T03:37:56.577Z,29.53
2023-05-14T03:38:56.672Z,26.10
2023-05-14T03:39:56.768Z,29.29
2023-05-14T03:40:56.820Z,26.78
2023-05-14T03:41:56.957Z,25.00
2023-05-14T03:42:56.991Z,25.90
2023-05-14T03:43:57.050Z,26.97
2023-05-14T03:44:57.230Z,25.00
2023-05-14T03:45:57.235Z,26.02
2023-05-14T03:46:57.311Z,26.63
2023-05-14T03:47:57.713Z,27.76
2023-05-14T03:48:57.505Z,25.58
2023-05-14T03:49:57.557Z,27.52
2023-05-14T03:50:57.690Z,32.28
2023-05-14T03:51:57.727Z,31.26
2023-05-14T03:52:57.824Z,29.40
2023-05-14T03:53:57.908Z,33.83
2023-05-14T03:54:57.970Z,32.07
2023-05-14T03:55:58.071Z,31.83
2023-05-14T03:56:58.164Z,34.52
2023-05-14T03:57:58.238Z,32.93
2023-05-14T03:58:58.310Z,33.20
2023-05-14T03:59:58.386Z,34.67
2023-05-14T04:00:58.742Z,34.96
2023-05-14T04:01:58.559Z,31.82
2023-05-14T04:02:58.741Z,38.01
2023-05-14T04:03:58.790Z,39.51
2023-05-14T04:04:58.773Z,36.15
2023-05-14T04:05:58.837Z,44.24
2023-05-14T04:06:58.917Z,40.19
2023-05-14T04:07:59.008Z,41.12
2023-05-14T04:08:59.107Z,42.94
2023-05-14T04:09:59.171Z,43.74
2023-05-14T04:10:59.261Z,42.80
2023-05-14T04:11:59.361Z,45.17
2023-05-14T04:12:59.471Z,45.77
2023-05-14T04:13:59.434Z,45.84
2023-05-14T04:14:59.435Z,46.31
2023-05-14T04:15:59.810Z,44.54
2023-05-14T04:17:00.371Z,48.58
2023-05-14T04:17:59.505Z,45.50
2023-05-14T04:18:59.533Z,44.22
2023-05-14T04:19:59.491Z,47.56
2023-05-14T04:20:59.526Z,45.43
2023-05-14T04:21:59.582Z,46.70
2023-05-14T04:22:59.649Z,46.82
2023-05-14T04:23:59.701Z,46.96
2023-05-14T04:24:59.770Z,47.58
2023-05-14T04:25:59.887Z,45.11
2023-05-14T04:26:59.932Z,49.84
2023-05-14T04:28:00.127Z,43.96
2023-05-14T04:29:00.196Z,39.97
2023-05-14T04:30:00.196Z,43.71
2023-05-14T04:31:00.281Z,40.69
2023-05-14T04:32:00.461Z,42.28
2023-05-14T04:33:00.492Z,40.85
2023-05-14T04:34:00.496Z,41.67
2023-05-14T04:35:00.555Z,43.78
2023-05-14T04:36:00.677Z,43.30
2023-05-14T04:37:00.765Z,40.98
2023-05-14T04:38:00.840Z,44.37
2023-05-14T04:39:00.880Z,43.63
2023-05-14T04:40:00.944Z,42.27
2023-05-14T04:41:01.088Z,40.99
2023-05-14T04:42:01.114Z,38.00
2023-05-14T04:43:01.215Z,40.58
2023-05-14T04:44:01.259Z,35.18
2023-05-14T04:45:01.305Z,30.23
2023-05-14T04:46:01.416Z,28.85
2023-05-14T04:47:01.491Z,26.88
2023-05-14T04:48:01.631Z,29.85
2023-05-14T04:49:01.604Z,29.94
2023-05-14T04:50:01.562Z,21.03
2023-05-14T04:51:01.574Z,13.01
2023-05-14T04:52:01.574Z,7.21
2023-05-14T04:53:01.605Z,4.31
2023-05-14T04:54:01.670Z,25.65
2023-05-14T04:55:01.645Z,25.31
2023-05-14T04:56:01.657Z,21.41
2023-05-14T04:57:01.678Z,13.79
2023-05-14T04:58:01.695Z,12.45
2023-05-14T04:59:01.725Z,8.80
2023-05-14T05:00:01.698Z,26.86
2023-05-14T05:01:01.756Z,25.20
2023-05-14T05:02:01.808Z,25.86
2023-05-14T05:03:01.882Z,26.01
2023-05-14T05:04:01.792Z,26.08
2023-05-14T05:05:01.795Z,26.42
2023-05-14T05:06:01.856Z,22.02
2023-05-14T05:07:01.842Z,20.34
2023-05-14T05:08:01.842Z,15.72
2023-05-14T05:09:02.381Z,26.18
2023-05-14T05:10:01.893Z,25.46
2023-05-14T05:11:01.908Z,26.08
2023-05-14T05:12:01.910Z,29.40
2023-05-14T05:13:01.924Z,25.20
2023-05-14T05:14:01.961Z,29.46
2023-05-14T05:15:01.986Z,28.99
2023-05-14T05:16:02.054Z,29.53
2023-05-14T05:17:02.006Z,24.72
2023-05-14T05:18:02.078Z,26.25
2023-05-14T05:19:02.062Z,25.08
2023-05-14T05:20:02.033Z,25.00
2023-05-14T05:21:02.072Z,25.58
2023-05-14T05:22:02.072Z,26.34
2023-05-14T05:23:02.092Z,29.74
2023-05-14T05:24:02.106Z,26.12
2023-05-14T05:25:02.145Z,29.55
2023-05-14T05:26:02.171Z,29.33
2023-05-14T05:27:02.165Z,25.00
2023-05-14T05:28:02.181Z,26.41
2023-05-14T05:29:02.208Z,26.46
2023-05-14T05:30:02.250Z,26.45
2023-05-14T05:31:02.296Z,24.25
2023-05-14T05:32:02.267Z,29.54
2023-05-14T05:33:02.353Z,27.22
2023-05-14T05:34:02.300Z,27.13
2023-05-14T05:35:02.332Z,27.87
2023-05-14T05:36:02.348Z,28.25
2023-05-14T05:37:02.368Z,32.45
2023-05-14T05:38:02.368Z,29.15
2023-05-14T05:39:02.387Z,25.78
2023-05-14T05:40:02.407Z,25.67
2023-05-14T05:41:02.444Z,24.89
2023-05-14T05:42:02.445Z,25.69
2023-05-14T05:43:02.477Z,28.13
2023-05-14T05:44:03.262Z,26.65
2023-05-14T05:45:02.521Z,33.12
2023-05-14T05:46:02.595Z,34.32
2023-05-14T05:47:02.692Z,37.85
2023-05-14T05:48:02.681Z,38.30
2023-05-14T05:49:02.616Z,48.57
2023-05-14T05:50:02.632Z,54.03
2023-05-14T05:51:02.634Z,62.04
2023-05-14T05:52:02.660Z,66.25
2023-05-14T05:53:02.669Z,69.74
2023-05-14T05:54:02.706Z,67.52
2023-05-14T05:55:02.754Z,72.97
2023-05-14T05:56:02.742Z,73.56
2023-05-14T05:57:02.746Z,75.53
2023-05-14T05:58:02.784Z,77.05
2023-05-14T05:59:02.804Z,85.33
2023-05-14T06:00:02.851Z,78.73
2023-05-14T06:01:02.817Z,85.79
2023-05-14T06:02:02.878Z,85.34
2023-05-14T06:03:02.886Z,84.92
2023-05-14T06:04:02.869Z,87.61
2023-05-14T06:05:02.926Z,91.69
2023-05-14T06:06:02.936Z,91.95
2023-05-14T06:07:02.927Z,92.30
2023-05-14T06:08:02.933Z,95.18
2023-05-14T06:09:02.956Z,97.12
2023-05-14T06:10:02.957Z,99.47
2023-05-14T06:11:02.974Z,103.57
2023-05-14T06:12:02.995Z,103.07
2023-05-14T06:13:03.000Z,110.06
2023-05-14T06:14:03.047Z,109.02
2023-05-14T06:15:03.037Z,109.98
2023-05-14T06:16:03.096Z,112.65
2023-05-14T06:17:03.082Z,112.34
2023-05-14T06:18:03.178Z,117.33
2023-05-14T06:19:03.214Z,116.59
2023-05-14T06:20:03.147Z,118.85
2023-05-14T06:21:03.124Z,120.17
2023-05-14T06:22:03.187Z,117.61
2023-05-14T06:23:03.161Z,116.81
2023-05-14T06:24:03.218Z,120.28
2023-05-14T06:25:03.193Z,117.29
2023-05-14T06:26:03.207Z,119.19
2023-05-14T06:27:03.239Z,123.51
2023-05-14T06:28:03.229Z,124.83
2023-05-14T06:29:03.260Z,127.40
2023-05-14T06:30:03.272Z,125.55
2023-05-14T06:31:03.296Z,127.54
2023-05-14T06:32:03.436Z,126.85
2023-05-14T06:33:03.529Z,128.78
2023-05-14T06:34:03.511Z,131.45
2023-05-14T06:35:03.611Z,131.83
2023-05-14T06:36:03.658Z,129.08
2023-05-14T06:37:03.667Z,129.43
2023-05-14T06:38:03.738Z,130.67
2023-05-14T06:39:03.820Z,128.59
2023-05-14T06:40:03.874Z,127.44
2023-05-14T06:41:03.951Z,134.28
2023-05-14T06:42:03.964Z,129.07
2023-05-14T06:43:03.987Z,128.10
2023-05-14T06:44:04.033Z,127.94
2023-05-14T06:45:04.076Z,130.81
2023-05-14T06:46:04.142Z,133.03
2023-05-14T06:47:04.310Z,131.61
2023-05-14T06:48:04.373Z,132.38
2023-05-14T06:49:04.462Z,127.28
2023-05-14T06:50:04.460Z,131.74
2023-05-14T06:51:04.542Z,139.76
2023-05-14T06:52:04.565Z,136.00
2023-05-14T06:53:04.599Z,138.84
2023-05-14T06:54:04.652Z,132.08
2023-05-14T06:55:04.702Z,130.40
2023-05-14T06:56:04.773Z,129.78
2023-05-14T06:57:04.845Z,124.11
2023-05-14T06:58:04.876Z,117.63
2023-05-14T06:59:04.953Z,114.16
2023-05-14T07:00:05.015Z,108.19
2023-05-14T07:01:05.070Z,104.63
2023-05-14T07:02:05.147Z,98.83
2023-05-14T07:03:05.280Z,87.37
2023-05-14T07:04:05.264Z,75.60
2023-05-14T07:05:05.249Z,64.10
2023-05-14T07:06:05.268Z,54.63
2023-05-14T07:07:05.310Z,55.64
2023-05-14T07:08:05.377Z,48.46
2023-05-14T07:09:05.366Z,27.82
2023-05-14T07:10:05.426Z,25.53
2023-05-14T07:11:05.411Z,25.57
2023-05-14T07:12:05.478Z,26.95
2023-05-14T07:13:05.521Z,26.38
2023-05-14T07:14:05.538Z,25.00
2023-05-14T07:15:05.582Z,30.18
2023-05-14T07:16:05.575Z,32.63
2023-05-14T07:17:05.620Z,23.35
2023-05-14T07:18:05.688Z,25.00
2023-05-14T07:19:05.653Z,29.73
2023-05-14T07:20:05.652Z,28.20
2023-05-14T07:21:05.705Z,24.98
2023-05-14T07:22:05.693Z,25.00
2023-05-14T07:23:05.697Z,27.46
2023-05-14T07:24:05.766Z,27.35
2023-05-14T07:25:05.733Z,29.48
2023-05-14T07:26:05.760Z,24.60
2023-05-14T07:27:05.788Z,29.51
2023-05-14T07:28:05.815Z,39.78
2023-05-14T07:29:05.830Z,32.34
2023-05-14T07:30:05.893Z,27.61
2023-05-14T07:31:05.880Z,33.51
2023-05-14T07:32:05.918Z,42.42
2023-05-14T07:33:05.996Z,38.19
2023-05-14T07:34:05.933Z,45.24
2023-05-14T07:35:05.965Z,44.42
2023-05-14T07:36:05.999Z,44.96
2023-05-14T07:37:06.037Z,46.66
2023-05-14T07:38:06.095Z,42.36
2023-05-14T07:39:06.174Z,32.56
2023-05-14T07:40:06.278Z,25.98
2023-05-14T07:41:06.294Z,31.32
2023-05-14T07:42:06.372Z,29.39
2023-05-14T07:43:06.422Z,31.71
2023-05-14T07:44:06.493Z,26.61
2023-05-14T07:45:06.524Z,27.80
2023-05-14T07:46:06.569Z,29.75
2023-05-14T07:47:06.678Z,26.66
2023-05-14T07:48:06.856Z,22.79
2023-05-14T07:49:06.773Z,24.34
2023-05-14T07:50:06.847Z,28.95
2023-05-14T07:51:06.909Z,26.80
2023-05-14T07:52:06.956Z,25.49
2023-05-14T07:53:06.998Z,31.60
2023-05-14T07:54:07.002Z,33.22
2023-05-14T07:55:07.018Z,24.48
2023-05-14T07:56:07.021Z,29.15
2023-05-14T07:57:07.062Z,30.66
2023-05-14T07:58:07.100Z,33.42
2023-05-14T07:59:07.139Z,26.75
2023-05-14T08:00:07.156Z,25.00
2023-05-14T08:01:07.350Z,39.67
2023-05-14T08:02:07.246Z,27.07
2023-05-14T08:03:07.406Z,25.46
2023-05-14T08:04:08.419Z,23.70
2023-05-14T08:05:07.382Z,27.88
2023-05-14T08:06:07.421Z,36.77
2023-05-14T08:07:07.465Z,39.65
2023-05-14T08:08:07.485Z,47.99
2023-05-14T08:09:07.513Z,43.11
2023-05-14T08:10:07.770Z,41.19
2023-05-14T08:11:08.365Z,38.33
2023-05-14T08:12:07.707Z,40.93
2023-05-14T08:13:07.666Z,41.06
2023-05-14T08:14:07.711Z,37.09
2023-05-14T08:15:07.846Z,23.41
2023-05-14T08:16:07.809Z,32.12
2023-05-14T08:17:07.998Z,39.38
2023-05-14T08:18:07.957Z,25.74
2023-05-14T08:19:07.972Z,29.47
2023-05-14T08:20:08.019Z,36.55
2023-05-14T08:21:08.091Z,30.69
2023-05-14T08:22:08.162Z,36.74
2023-05-14T08:23:08.226Z,32.80
2023-05-14T08:24:08.299Z,40.42
2023-05-14T08:25:08.409Z,44.23
2023-05-14T08:26:08.435Z,30.21
2023-05-14T08:27:08.487Z,25.00
2023-05-14T08:28:08.552Z,35.02
2023-05-14T08:29:10.480Z,28.56
2023-05-14T08:30:08.653Z,38.21
2023-05-14T08:31:08.822Z,32.83
2023-05-14T08:32:22.226Z,25.29
2023-05-14T08:33:09.770Z,25.29
2023-05-14T08:34:08.760Z,23.01
2023-05-14T08:35:08.782Z,14.61
2023-05-14T08:36:08.767Z,0.94
2023-05-14T08:37:08.803Z,0.00
2023-05-14T08:38:08.800Z,15.45
2023-05-14T08:39:08.816Z,40.10
2023-05-14T08:40:08.820Z,50.01
2023-05-14T08:41:08.809Z,67.60
2023-05-14T08:42:08.843Z,77.64
2023-05-14T08:43:08.850Z,84.48
2023-05-14T08:44:08.846Z,91.82
2023-05-14T08:45:08.841Z,88.99
2023-05-14T08:46:08.873Z,93.39
2023-05-14T08:47:08.997Z,102.74
2023-05-14T08:48:09.252Z,108.39
2023-05-14T08:49:09.227Z,110.47
2023-05-14T08:50:09.190Z,114.16
2023-05-14T08:51:09.252Z,124.50
2023-05-14T08:52:09.334Z,140.55
2023-05-14T08:53:09.406Z,135.94
2023-05-14T08:54:09.466Z,144.37
2023-05-14T08:55:09.541Z,144.41
2023-05-14T08:56:09.611Z,156.26
2023-05-14T08:57:09.694Z,165.44
2023-05-14T08:58:09.751Z,176.30
2023-05-14T08:59:09.818Z,176.75
2023-05-14T09:00:09.889Z,180.14
2023-05-14T09:01:09.968Z,186.68
2023-05-14T09:02:10.116Z,189.98
2023-05-14T09:03:10.149Z,196.16
2023-05-14T09:04:10.283Z,197.54
2023-05-14T09:05:10.205Z,200.52
2023-05-14T09:06:10.274Z,213.48
2023-05-14T09:07:10.342Z,217.18
2023-05-14T09:08:10.390Z,220.51
2023-05-14T09:09:10.448Z,224.52
2023-05-14T09:10:10.542Z,231.02
2023-05-14T09:11:10.555Z,229.85
2023-05-14T09:12:10.929Z,233.86
2023-05-14T09:13:10.670Z,239.95
2023-05-14T09:14:10.728Z,246.09
2023-05-14T09:15:10.781Z,250.00
2023-05-14T09:16:10.894Z,250.12
2023-05-14T09:17:10.916Z,248.94
2023-05-14T09:18:11.003Z,250.51
2023-05-14T09:19:11.159Z,248.37
2023-05-14T09:20:11.083Z,246.45
2023-05-14T09:21:11.156Z,246.47
2023-05-14T09:22:11.184Z,246.79
2023-05-14T09:23:11.165Z,248.21
2023-05-14T09:24:11.163Z,251.11
2023-05-14T09:25:11.171Z,258.07
2023-05-14T09:26:11.172Z,263.80
2023-05-14T09:27:11.238Z,249.16
2023-05-14T09:28:11.160Z,249.83
2023-05-14T09:29:11.165Z,247.98
2023-05-14T09:30:11.178Z,244.80
2023-05-14T09:31:11.201Z,248.05
2023-05-14T09:32:11.211Z,248.77
2023-05-14T09:33:11.267Z,246.14
2023-05-14T09:34:11.287Z,246.40
2023-05-14T09:35:11.272Z,246.96
2023-05-14T09:36:11.277Z,248.45
2023-05-14T09:37:11.282Z,252.97
2023-05-14T09:38:11.279Z,257.20
2023-05-14T09:39:11.291Z,250.52
2023-05-14T09:40:11.301Z,248.60
2023-05-14T09:41:11.316Z,248.82
2023-05-14T09:42:11.337Z,247.54
2023-05-14T09:43:11.309Z,249.89
2023-05-14T09:44:11.340Z,249.26
2023-05-14T09:45:11.411Z,247.05
2023-05-14T09:46:11.458Z,250.00
2023-05-14T09:47:11.552Z,248.05
2023-05-14T09:48:11.627Z,248.16
2023-05-14T09:49:11.644Z,246.92
2023-05-14T09:50:11.727Z,248.41
2023-05-14T09:51:11.756Z,249.41
2023-05-14T09:52:11.832Z,247.86
2023-05-14T09:53:11.894Z,249.91
2023-05-14T09:54:11.955Z,245.75
2023-05-14T09:55:12.006Z,249.24
2023-05-14T09:56:12.077Z,248.13
2023-05-14T09:57:12.139Z,248.16
2023-05-14T09:58:12.172Z,245.81
2023-05-14T09:59:12.243Z,248.07
2023-05-14T10:00:12.311Z,248.99
2023-05-14T10:01:12.435Z,248.86
2023-05-14T10:02:12.436Z,246.36
2023-05-14T10:03:12.533Z,248.85
2023-05-14T10:04:12.599Z,250.37
2023-05-14T10:05:12.603Z,247.60
2023-05-14T10:06:12.664Z,247.85
2023-05-14T10:07:12.744Z,248.44
2023-05-14T10:08:12.798Z,249.42
2023-05-14T10:09:12.839Z,248.32
2023-05-14T10:10:12.905Z,248.56
2023-05-14T10:11:12.975Z,249.05
2023-05-14T10:12:13.020Z,249.93
2023-05-14T10:13:13.080Z,245.74
2023-05-14T10:14:13.153Z,248.25
2023-05-14T10:15:13.307Z,249.77
2023-05-14T10:16:13.261Z,249.63
2023-05-14T10:17:13.457Z,249.37
2023-05-14T10:18:13.447Z,246.16
2023-05-14T10:19:13.477Z,249.03
2023-05-14T10:20:13.514Z,250.00
2023-05-14T10:21:13.569Z,247.07
2023-05-14T10:22:13.654Z,249.10
2023-05-14T10:23:13.686Z,250.00
2023-05-14T10:24:13.774Z,248.84
2023-05-14T10:25:13.817Z,248.45
2023-05-14T10:26:13.900Z,248.05
2023-05-14T10:27:13.947Z,247.06
2023-05-14T10:28:14.134Z,250.00
2023-05-14T10:29:14.200Z,249.76
2023-05-14T10:30:14.107Z,246.97
2023-05-14T10:31:14.187Z,248.72
2023-05-14T10:32:14.242Z,248.95
2023-05-14T10:33:14.391Z,249.30
2023-05-14T10:34:14.457Z,247.85
2023-05-14T10:35:14.417Z,247.06
2023-05-14T10:36:14.494Z,247.38
2023-05-14T10:37:14.554Z,249.03
2023-05-14T10:38:14.593Z,249.19
2023-05-14T10:39:14.662Z,249.90
2023-05-14T10:40:14.774Z,250.00
2023-05-14T10:41:14.798Z,247.71
2023-05-14T10:42:14.872Z,248.24
2023-05-14T10:43:14.937Z,249.49
2023-05-14T10:44:14.976Z,249.34
2023-05-14T10:45:15.049Z,249.81
2023-05-14T10:46:15.155Z,250.00
2023-05-14T10:47:15.187Z,246.66
2023-05-14T10:48:15.260Z,249.00
2023-05-14T10:49:16.629Z,246.99
2023-05-14T10:50:15.278Z,247.12
2023-05-14T10:51:15.316Z,247.36
2023-05-14T10:52:15.296Z,248.36
2023-05-14T10:53:15.297Z,250.04
2023-05-14T10:54:15.297Z,251.65
2023-05-14T10:55:15.300Z,248.03
2023-05-14T10:56:15.309Z,248.56
2023-05-14T10:57:15.334Z,249.74
2023-05-14T10:58:15.337Z,247.72
2023-05-14T10:59:15.339Z,248.33
2023-05-14T11:00:15.333Z,249.12
2023-05-14T11:01:15.337Z,249.28
2023-05-14T11:02:16.055Z,250.00
2023-05-14T11:03:15.450Z,250.00
2023-05-14T11:04:15.378Z,247.01
2023-05-14T11:05:15.449Z,248.13
2023-05-14T11:06:15.375Z,247.56
2023-05-14T11:07:15.361Z,247.71
2023-05-14T11:08:15.391Z,249.76
2023-05-14T11:09:15.385Z,248.98
2023-05-14T11:10:15.428Z,248.08
2023-05-14T11:11:15.426Z,248.70
2023-05-14T11:12:15.398Z,247.21
2023-05-14T11:13:15.398Z,246.92
2023-05-14T11:14:15.425Z,248.91
2023-05-14T11:15:15.413Z,248.20
2023-05-14T11:16:23.447Z,250.00
2023-05-14T11:17:16.524Z,250.08
2023-05-14T11:18:16.023Z,250.21
2023-05-14T11:19:15.640Z,250.34
2023-05-14T11:20:15.447Z,250.92
2023-05-14T11:21:15.558Z,251.56
2023-05-14T11:22:15.443Z,248.21
2023-05-14T11:23:15.443Z,248.03
2023-05-14T11:24:15.466Z,248.16
2023-05-14T11:25:15.474Z,245.98
2023-05-14T11:26:15.504Z,246.78
2023-05-14T11:27:15.484Z,248.84
2023-05-14T11:28:15.489Z,249.41
2023-05-14T11:29:15.552Z,249.42
2023-05-14T11:30:15.634Z,250.00
2023-05-14T11:31:15.714Z,250.00
2023-05-14T11:32:15.730Z,248.91
2023-05-14T11:33:15.833Z,246.90
2023-05-14T11:34:15.811Z,249.48
2023-05-14T11:35:15.886Z,247.28
2023-05-14T11:36:15.916Z,247.39
2023-05-14T11:37:15.976Z,248.53
2023-05-14T11:38:15.994Z,246.88
2023-05-14T11:39:16.054Z,248.03
2023-05-14T11:40:16.108Z,248.37
2023-05-14T11:41:16.200Z,248.74
2023-05-14T11:42:16.205Z,249.00
2023-05-14T11:43:16.262Z,246.22
2023-05-14T11:44:16.293Z,248.41
2023-05-14T11:45:16.360Z,247.48
2023-05-14T11:46:16.426Z,248.59
2023-05-14T11:47:16.491Z,248.68
2023-05-14T11:48:16.509Z,248.89
2023-05-14T11:49:16.547Z,247.57
2023-05-14T11:50:16.659Z,249.34
2023-05-14T11:51:16.665Z,249.44
2023-05-14T11:52:16.703Z,247.75
2023-05-14T11:53:16.730Z,249.98
2023-05-14T11:54:16.782Z,248.95
2023-05-14T11:55:16.811Z,249.90
2023-05-14T11:56:16.860Z,248.75
2023-05-14T11:57:16.900Z,248.24
2023-05-14T11:58:16.996Z,247.73
2023-05-14T11:59:17.002Z,248.07
2023-05-14T12:00:17.072Z,249.03
2023-05-14T12:01:17.073Z,248.36
2023-05-14T12:02:17.158Z,248.25
2023-05-14T12:03:17.246Z,248.33
2023-05-14T12:04:17.248Z,248.64
2023-05-14T12:05:17.130Z,249.41
2023-05-14T12:06:17.127Z,249.40
2023-05-14T12:07:17.170Z,248.85
2023-05-14T12:08:17.151Z,248.39
2023-05-14T12:09:17.168Z,248.61
2023-05-14T12:10:17.130Z,248.93
2023-05-14T12:11:17.121Z,249.75
2023-05-14T12:12:17.162Z,252.92
2023-05-14T12:13:17.155Z,248.62
2023-05-14T12:14:17.147Z,248.73
2023-05-14T12:15:17.173Z,248.89
2023-05-14T12:16:17.242Z,248.45
2023-05-14T12:17:17.208Z,247.16
2023-05-14T12:18:24.733Z,249.89
2023-05-14T12:19:18.193Z,249.94
2023-05-14T12:20:17.198Z,250.08
2023-05-14T12:21:17.223Z,249.62
2023-05-14T12:22:17.188Z,251.31
2023-05-14T12:23:17.203Z,250.05
2023-05-14T12:24:17.208Z,249.26
2023-05-14T12:25:17.201Z,249.28
2023-05-14T12:26:17.182Z,247.71
2023-05-14T12:27:17.179Z,250.00
2023-05-14T12:28:17.180Z,246.41
2023-05-14T12:29:17.208Z,246.20
2023-05-14T12:30:21.795Z,249.13
2023-05-14T12:31:18.258Z,249.22
2023-05-14T12:32:17.173Z,247.65
2023-05-14T12:33:17.551Z,247.66
2023-05-14T12:34:17.201Z,249.47
2023-05-14T12:35:17.229Z,248.18
2023-05-14T12:36:21.726Z,247.25
2023-05-14T12:37:17.200Z,247.36
2023-05-14T12:38:17.206Z,247.44
2023-05-14T12:39:17.206Z,247.79
2023-05-14T12:40:17.245Z,248.50
2023-05-14T12:41:17.200Z,250.02
2023-05-14T12:42:17.233Z,250.72
2023-05-14T12:43:17.255Z,249.15
2023-05-14T12:44:17.210Z,248.72